Time;durP1;ratioP1;P1;durP2;ratioP2;P2;SDS_P1;SDS_P2;PMS_P1;PMS_P2;Temp;Humidity;BMP_temperature;BMP_pressure;BME280_temperature;BME280_humidity;BME280_pressure;Samples;Min_cycle;Max_cycle;Signal;HPM_P1;HPM_P2
2023/12/06 00:02:04;;;;;;;3.17;1.70;;;1.90;99.90;;;;;;4934236;29;20224;-65
2023/12/06 00:04:30;;;;;;;2.33;1.27;;;1.80;99.90;;;;;;4935805;29;20653;-65
2023/12/06 00:06:56;;;;;;;1.53;1.07;;;1.90;99.90;;;;;;4935544;29;20198;-65
2023/12/06 00:09:21;;;;;;;1.73;1.20;;;1.90;99.90;;;;;;4935493;29;20711;-65
2023/12/06 00:11:47;;;;;;;1.93;1.27;;;1.90;99.90;;;;;;4934951;29;20279;-66
2023/12/06 00:14:12;;;;;;;1.53;1.00;;;1.90;99.90;;;;;;4935439;29;20191;-65
2023/12/06 00:16:39;;;;;;;4.30;1.27;;;1.90;99.90;;;;;;4935516;29;20190;-66
2023/12/06 00:19:05;;;;;;;3.47;1.60;;;1.90;99.90;;;;;;4935390;29;20201;-64
2023/12/06 00:21:31;;;;;;;4.47;1.50;;;1.90;99.90;;;;;;4934654;29;20211;-65
2023/12/06 00:23:56;;;;;;;1.93;1.30;;;1.90;99.90;;;;;;4935197;29;20191;-65
2023/12/06 00:26:22;;;;;;;2.67;1.10;;;2.00;99.90;;;;;;4935367;29;20198;-65
2023/12/06 00:28:47;;;;;;;2.17;1.20;;;2.00;99.90;;;;;;4934881;29;20258;-65
2023/12/06 00:31:13;;;;;;;2.70;1.30;;;2.00;99.90;;;;;;4934311;29;20226;-65
2023/12/06 00:33:39;;;;;;;2.33;1.30;;;2.00;99.90;;;;;;4935161;29;20624;-65
2023/12/06 00:36:04;;;;;;;1.90;1.10;;;2.10;99.90;;;;;;4934942;29;20193;-65
2023/12/06 00:38:31;;;;;;;2.40;1.40;;;2.10;99.90;;;;;;4935059;29;20700;-64
2023/12/06 00:40:57;;;;;;;3.50;1.20;;;2.10;99.90;;;;;;4934135;29;20195;-65
2023/12/06 00:43:22;;;;;;;2.10;1.30;;;2.10;99.90;;;;;;4934829;29;20263;-65
2023/12/06 00:45:48;;;;;;;2.27;1.33;;;2.10;99.90;;;;;;4934822;29;20210;-65
2023/12/06 00:48:13;;;;;;;2.83;1.57;;;2.10;99.90;;;;;;4934882;29;20684;-65
2023/12/06 00:50:39;;;;;;;5.50;1.63;;;2.10;99.90;;;;;;4934198;29;20672;-65
2023/12/06 00:53:04;;;;;;;2.77;1.60;;;2.10;99.90;;;;;;4934601;29;20203;-65
2023/12/06 00:55:30;;;;;;;4.00;2.30;;;2.20;99.90;;;;;;4934795;29;20183;-64
2023/12/06 00:57:56;;;;;;;3.00;2.00;;;2.20;99.90;;;;;;4933554;29;20180;-65
2023/12/06 01:00:21;;;;;;;3.80;2.20;;;2.20;99.90;;;;;;4933925;29;20190;-64
2023/12/06 01:02:47;;;;;;;3.73;2.17;;;2.20;99.90;;;;;;4934401;29;20234;-66
2023/12/06 01:05:12;;;;;;;5.17;2.90;;;2.20;99.90;;;;;;4934168;29;20183;-65
2023/12/06 01:07:38;;;;;;;5.10;3.10;;;2.20;99.90;;;;;;4934661;29;20274;-65
2023/12/06 01:10:04;;;;;;;6.60;3.37;;;2.20;99.90;;;;;;4933753;29;20247;-65
2023/12/06 01:12:30;;;;;;;7.40;4.40;;;2.20;99.90;;;;;;4948961;28;20199;-65
2023/12/06 01:14:55;;;;;;;9.00;3.87;;;2.20;99.90;;;;;;4934269;29;20254;-65
2023/12/06 01:17:21;;;;;;;11.33;4.80;;;2.20;99.90;;;;;;4934516;29;20214;-65
2023/12/06 01:19:46;;;;;;;9.23;4.80;;;2.20;99.90;;;;;;4933524;29;20572;-65
2023/12/06 01:22:12;;;;;;;7.23;3.90;;;2.30;99.90;;;;;;4934135;29;20211;-65
2023/12/06 01:24:37;;;;;;;9.43;4.83;;;2.30;99.90;;;;;;4934291;29;20222;-65
2023/12/06 01:27:04;;;;;;;9.37;4.43;;;2.30;99.90;;;;;;4933889;29;20231;-65
2023/12/06 01:29:29;;;;;;;9.27;4.53;;;2.30;99.90;;;;;;4933891;29;20217;-65
2023/12/06 01:31:55;;;;;;;9.10;4.50;;;2.30;99.90;;;;;;4933249;29;20227;-65
2023/12/06 01:34:21;;;;;;;7.07;4.03;;;2.40;99.90;;;;;;4934176;29;20214;-65
2023/12/06 01:36:47;;;;;;;7.43;4.33;;;2.30;99.90;;;;;;4934007;29;20218;-66
2023/12/06 01:39:12;;;;;;;11.10;5.60;;;2.30;99.90;;;;;;4933956;29;20661;-65
2023/12/06 01:41:38;;;;;;;13.33;6.50;;;2.30;99.90;;;;;;4933307;29;20583;-66
2023/12/06 01:44:04;;;;;;;13.37;6.33;;;2.30;99.90;;;;;;4933646;29;20220;-66
2023/12/06 01:46:29;;;;;;;14.60;6.70;;;2.30;99.90;;;;;;4933918;29;20564;-65
2023/12/06 01:48:57;;;;;;;15.57;6.90;;;2.30;99.90;;;;;;4933548;29;20246;-65
2023/12/06 01:51:23;;;;;;;14.73;6.97;;;2.30;99.90;;;;;;4933096;29;20214;-65
2023/12/06 01:53:49;;;;;;;17.40;7.37;;;2.30;99.90;;;;;;4933575;29;20229;-66
2023/12/06 01:56:17;;;;;;;19.57;7.20;;;2.30;99.90;;;;;;4933598;29;20261;-65
2023/12/06 01:58:42;;;;;;;14.33;6.57;;;2.30;99.90;;;;;;4933608;29;20538;-66
2023/12/06 02:01:08;;;;;;;16.47;7.37;;;2.40;99.90;;;;;;4932805;29;20183;-66
2023/12/06 02:03:35;;;;;;;17.47;6.80;;;2.40;99.90;;;;;;4933550;29;20534;-66
2023/12/06 02:06:06;;;;;;;26.30;6.80;;;2.40;99.90;;;;;;4933375;29;20194;-66
2023/12/06 02:08:34;;;;;;;16.87;7.23;;;2.40;99.90;;;;;;4933434;29;20203;-66
2023/12/06 02:10:59;;;;;;;17.67;6.60;;;2.30;99.90;;;;;;4932365;29;20187;-65
2023/12/06 02:13:26;;;;;;;13.47;6.43;;;2.30;99.90;;;;;;4933336;29;20198;-66
2023/12/06 02:15:52;;;;;;;16.30;6.27;;;2.30;99.90;;;;;;4933277;29;20530;-65
2023/12/06 02:18:18;;;;;;;16.73;6.80;;;2.20;99.90;;;;;;4933427;29;20920;-66
2023/12/06 02:20:44;;;;;;;16.77;6.70;;;2.30;99.90;;;;;;4932708;29;20187;-66
2023/12/06 02:23:11;;;;;;;13.20;6.40;;;2.30;99.90;;;;;;4933059;29;20221;-66
2023/12/06 02:25:36;;;;;;;12.60;6.13;;;2.30;99.90;;;;;;4933150;29;20494;-65
2023/12/06 02:28:02;;;;;;;14.17;6.00;;;2.30;99.90;;;;;;4933051;29;20191;-65
2023/12/06 02:30:27;;;;;;;13.37;5.90;;;2.40;99.90;;;;;;4932499;29;20601;-66
2023/12/06 02:32:53;;;;;;;13.67;5.87;;;2.40;99.90;;;;;;4947791;28;20625;-66
2023/12/06 02:35:26;;;;;;;12.97;5.73;;;2.40;99.90;;;;;;4933318;29;20194;-66
2023/12/06 02:37:55;;;;;;;13.27;5.37;;;2.40;99.90;;;;;;4933040;29;20194;-66
2023/12/06 02:40:22;;;;;;;14.43;5.53;;;2.40;99.90;;;;;;4932346;29;20339;-66
2023/12/06 02:42:48;;;;;;;13.60;6.03;;;2.40;99.90;;;;;;4932777;29;20261;-66
2023/12/06 02:45:14;;;;;;;15.37;6.27;;;2.40;99.90;;;;;;4933147;29;20179;-66
2023/12/06 02:47:40;;;;;;;12.60;5.87;;;2.40;99.90;;;;;;4931955;29;20194;-66
2023/12/06 02:50:06;;;;;;;12.23;5.50;;;2.40;99.90;;;;;;4932173;29;20973;-66
2023/12/06 02:52:31;;;;;;;13.03;6.13;;;2.40;99.90;;;;;;4932968;29;20230;-66
2023/12/06 02:54:57;;;;;;;14.30;6.60;;;2.40;99.90;;;;;;4933139;29;20387;-66
2023/12/06 02:57:23;;;;;;;12.73;5.80;;;2.40;99.90;;;;;;4932823;29;20194;-66
2023/12/06 02:59:48;;;;;;;14.80;6.17;;;2.40;99.90;;;;;;4932247;29;20270;-65
2023/12/06 03:02:14;;;;;;;11.53;5.60;;;2.40;99.90;;;;;;4932851;29;20198;-66
2023/12/06 03:04:39;;;;;;;13.77;6.13;;;2.30;99.90;;;;;;4932910;29;20664;-65
2023/12/06 03:07:05;;;;;;;13.87;5.67;;;2.30;99.90;;;;;;4932793;29;20194;-65
2023/12/06 03:09:30;;;;;;;13.83;5.93;;;2.30;99.90;;;;;;4932536;29;20239;-65
2023/12/06 03:11:56;;;;;;;13.97;5.70;;;2.40;99.90;;;;;;4932053;29;20764;-65
2023/12/06 03:14:22;;;;;;;15.23;5.47;;;2.40;99.90;;;;;;4947699;29;20742;-66
2023/12/06 03:16:47;;;;;;;15.30;5.80;;;2.40;99.90;;;;;;4932801;29;20195;-66
2023/12/06 03:19:13;;;;;;;9.53;5.03;;;2.40;99.90;;;;;;4932764;29;20231;-66
2023/12/06 03:21:39;;;;;;;10.33;4.43;;;2.30;99.90;;;;;;4933137;29;20203;-65
2023/12/06 03:24:05;;;;;;;8.50;4.73;;;2.30;99.90;;;;;;4936233;29;20608;-65
2023/12/06 03:26:30;;;;;;;8.10;3.97;;;2.30;99.90;;;;;;4936440;29;20187;-65
2023/12/06 03:28:56;;;;;;;10.83;4.60;;;2.30;99.90;;;;;;4936046;29;20222;-65
2023/12/06 03:31:21;;;;;;;7.47;3.80;;;2.30;99.90;;;;;;4935113;29;20219;-65
2023/12/06 03:33:47;;;;;;;9.57;4.33;;;2.30;99.90;;;;;;4936245;29;20175;-65
2023/12/06 03:36:13;;;;;;;7.23;4.40;;;2.30;99.90;;;;;;4936489;29;20191;-65
2023/12/06 03:38:40;;;;;;;18.07;5.23;;;2.30;99.90;;;;;;4950722;29;20525;-65
2023/12/06 03:41:06;;;;;;;8.40;4.20;;;2.30;99.90;;;;;;4935421;29;20179;-65
2023/12/06 03:43:31;;;;;;;8.33;4.20;;;2.30;99.90;;;;;;4936024;29;20197;-66
2023/12/06 03:45:57;;;;;;;7.90;3.73;;;2.30;99.90;;;;;;4935928;29;20197;-65
2023/12/06 03:48:22;;;;;;;7.53;4.00;;;2.30;99.90;;;;;;4935977;29;20273;-66
2023/12/06 03:50:48;;;;;;;9.23;4.23;;;2.40;99.90;;;;;;4935304;29;20609;-66
2023/12/06 03:53:13;;;;;;;7.23;3.87;;;2.40;99.90;;;;;;4935819;29;20560;-65
2023/12/06 03:55:39;;;;;;;8.10;4.10;;;2.30;99.90;;;;;;4935879;29;20194;-65
2023/12/06 03:58:06;;;;;;;10.30;4.23;;;2.30;99.90;;;;;;4950251;29;20266;-65
2023/12/06 04:00:31;;;;;;;6.50;3.80;;;2.30;99.90;;;;;;4935136;29;20175;-65
2023/12/06 04:02:57;;;;;;;7.97;3.87;;;2.30;99.90;;;;;;4935603;29;20207;-65
2023/12/06 04:05:23;;;;;;;6.47;3.80;;;2.30;99.90;;;;;;4935631;29;20195;-66
2023/12/06 04:07:48;;;;;;;9.03;4.27;;;2.20;99.90;;;;;;4934237;29;20270;-65
2023/12/06 04:10:14;;;;;;;7.60;4.20;;;2.20;99.90;;;;;;4934893;29;20262;-65
2023/12/06 04:12:40;;;;;;;7.27;4.00;;;2.20;99.90;;;;;;4935425;29;20199;-65
2023/12/06 04:15:06;;;;;;;7.90;3.87;;;2.20;99.90;;;;;;4935407;29;20687;-65
2023/12/06 04:17:32;;;;;;;7.67;4.27;;;2.10;99.90;;;;;;4935468;29;20180;-65
2023/12/06 04:19:57;;;;;;;8.70;4.50;;;2.10;99.90;;;;;;4934875;29;20199;-66
2023/12/06 04:22:23;;;;;;;7.30;4.00;;;2.10;99.90;;;;;;4935334;29;20206;-65
2023/12/06 04:24:48;;;;;;;7.37;4.07;;;2.10;99.90;;;;;;4935253;29;20697;-65
2023/12/06 04:27:14;;;;;;;7.23;3.93;;;2.20;99.90;;;;;;4927528;29;20191;-65
2023/12/06 04:29:40;;;;;;;8.00;4.53;;;2.20;99.90;;;;;;4934497;29;20215;-65
2023/12/06 04:32:05;;;;;;;8.27;4.33;;;2.20;99.90;;;;;;4934839;29;20238;-65
2023/12/06 04:34:32;;;;;;;7.87;4.00;;;2.20;99.90;;;;;;4935092;29;20187;-65
2023/12/06 04:36:58;;;;;;;7.20;4.10;;;2.20;99.90;;;;;;4934851;29;20293;-65
2023/12/06 04:39:23;;;;;;;9.30;4.83;;;2.10;99.90;;;;;;4935135;29;20187;-66
2023/12/06 04:41:49;;;;;;;9.23;4.53;;;2.20;99.90;;;;;;4934661;29;20218;-65
2023/12/06 04:44:14;;;;;;;8.13;4.47;;;2.20;99.90;;;;;;4925892;29;20183;-65
2023/12/06 04:46:40;;;;;;;18.80;8.30;;;2.10;99.90;;;;;;4933647;29;20198;-65
2023/12/06 04:49:06;;;;;;;12.40;5.67;;;2.10;99.90;;;;;;4934360;29;20222;-66
2023/12/06 04:51:31;;;;;;;9.43;5.13;;;2.10;99.90;;;;;;4934093;29;20316;-65
2023/12/06 04:53:57;;;;;;;8.03;5.00;;;2.10;99.90;;;;;;4934759;29;20190;-65
2023/12/06 04:56:22;;;;;;;9.10;4.87;;;2.10;99.90;;;;;;4934805;29;20235;-65
2023/12/06 04:58:48;;;;;;;9.87;4.87;;;2.00;99.90;;;;;;4934569;29;20191;-66
2023/12/06 05:01:13;;;;;;;11.17;5.20;;;2.00;99.90;;;;;;4933801;29;20215;-65
2023/12/06 05:03:39;;;;;;;8.63;4.63;;;2.00;99.90;;;;;;4934623;29;20186;-65
2023/12/06 05:06:05;;;;;;;8.00;4.70;;;1.90;99.90;;;;;;4934410;29;20784;-65
2023/12/06 05:08:30;;;;;;;8.50;4.50;;;2.00;99.90;;;;;;4934576;29;20238;-65
2023/12/06 05:10:56;;;;;;;10.80;4.47;;;1.90;99.90;;;;;;4933806;29;20657;-65
2023/12/06 05:13:21;;;;;;;12.13;4.63;;;1.90;99.90;;;;;;4934250;29;20194;-65
2023/12/06 05:15:47;;;;;;;7.00;4.10;;;2.00;99.90;;;;;;4934313;29;20219;-67
2023/12/06 05:18:12;;;;;;;9.23;4.90;;;2.00;99.90;;;;;;4934235;29;20191;-66
2023/12/06 05:20:38;;;;;;;7.97;4.40;;;1.90;99.90;;;;;;4933536;29;20183;-65
2023/12/06 05:23:03;;;;;;;7.90;4.50;;;1.90;99.90;;;;;;4933947;29;20206;-65
2023/12/06 05:25:29;;;;;;;6.90;3.80;;;1.90;99.90;;;;;;4934239;29;20258;-65
2023/12/06 05:27:55;;;;;;;8.43;4.30;;;1.90;99.90;;;;;;4934018;29;20210;-65
2023/12/06 05:30:20;;;;;;;12.50;3.77;;;1.90;99.90;;;;;;4933627;29;20238;-65
2023/12/06 05:32:46;;;;;;;9.87;4.13;;;1.90;99.90;;;;;;4934198;29;20579;-66
2023/12/06 05:35:12;;;;;;;8.60;3.80;;;1.90;99.90;;;;;;4933859;29;20238;-65
2023/12/06 05:37:37;;;;;;;8.30;4.27;;;1.80;99.90;;;;;;4933872;29;20193;-65
2023/12/06 05:40:03;;;;;;;10.03;4.70;;;1.80;99.90;;;;;;4933091;29;20199;-65
2023/12/06 05:42:29;;;;;;;10.23;5.17;;;1.80;99.90;;;;;;4933898;29;20235;-65
2023/12/06 05:44:54;;;;;;;11.43;5.33;;;1.70;99.90;;;;;;4933369;29;20193;-65
2023/12/06 05:47:20;;;;;;;14.13;5.93;;;1.70;99.90;;;;;;4933979;29;20664;-65
2023/12/06 05:49:45;;;;;;;11.33;5.53;;;1.70;99.90;;;;;;4933091;29;20257;-65
2023/12/06 05:52:11;;;;;;;14.97;7.20;;;1.80;99.90;;;;;;4933566;29;20254;-66
2023/12/06 05:54:37;;;;;;;14.77;6.63;;;1.70;99.90;;;;;;4933712;29;20190;-65
2023/12/06 05:57:03;;;;;;;15.47;7.37;;;1.70;99.90;;;;;;4933604;29;20218;-66
2023/12/06 05:59:28;;;;;;;16.60;7.13;;;1.70;99.90;;;;;;4933313;29;20233;-64
2023/12/06 06:01:54;;;;;;;16.30;7.13;;;1.70;99.90;;;;;;4932773;29;20231;-64
2023/12/06 06:04:19;;;;;;;15.90;7.60;;;1.60;99.90;;;;;;4933590;29;20191;-65
2023/12/06 06:06:45;;;;;;;15.80;7.73;;;1.60;99.90;;;;;;4933538;29;20191;-65
2023/12/06 06:09:10;;;;;;;16.07;7.53;;;1.60;99.90;;;;;;4933245;29;20548;-66
2023/12/06 06:11:36;;;;;;;21.30;8.00;;;1.60;99.90;;;;;;4931736;29;20211;-65
2023/12/06 06:14:01;;;;;;;18.47;7.53;;;1.60;99.90;;;;;;4931874;29;20270;-66
2023/12/06 06:16:27;;;;;;;20.97;8.53;;;1.60;99.90;;;;;;4933494;29;20191;-66
2023/12/06 06:18:53;;;;;;;18.20;8.10;;;1.60;99.90;;;;;;4931931;29;20194;-63
2023/12/06 06:21:19;;;;;;;17.07;8.50;;;1.60;99.90;;;;;;4932791;29;20204;-64
2023/12/06 06:23:45;;;;;;;17.30;8.47;;;1.60;99.90;;;;;;4932335;29;20232;-65
2023/12/06 06:26:11;;;;;;;18.10;8.63;;;1.60;99.90;;;;;;4933257;29;20273;-65
2023/12/06 06:28:37;;;;;;;21.57;8.70;;;1.60;99.90;;;;;;4932332;29;20294;-66
2023/12/06 06:31:03;;;;;;;22.50;9.20;;;1.50;99.90;;;;;;4932370;29;20600;-65
2023/12/06 06:33:30;;;;;;;20.23;9.50;;;1.50;99.90;;;;;;4933158;29;20188;-65
2023/12/06 06:35:55;;;;;;;20.83;9.47;;;1.50;99.90;;;;;;4933002;29;20190;-65
2023/12/06 06:38:21;;;;;;;26.27;9.57;;;1.50;99.90;;;;;;4934182;29;20195;-64
2023/12/06 06:40:46;;;;;;;20.30;8.93;;;1.40;99.90;;;;;;4938369;29;20250;-65
2023/12/06 06:43:12;;;;;;;25.57;10.13;;;1.40;99.90;;;;;;4938675;29;20482;-65
2023/12/06 06:45:39;;;;;;;27.13;11.50;;;1.40;99.90;;;;;;4936662;29;20183;-65
2023/12/06 06:48:05;;;;;;;31.00;13.67;;;1.40;99.90;;;;;;4935963;29;20187;-65
2023/12/06 06:50:31;;;;;;;31.57;12.97;;;1.40;99.90;;;;;;4932306;29;20198;-65
2023/12/06 06:52:59;;;;;;;39.40;13.97;;;1.30;99.90;;;;;;4932745;29;20238;-65
2023/12/06 06:55:24;;;;;;;33.40;14.77;;;1.30;99.90;;;;;;4933103;29;20206;-64
2023/12/06 06:57:50;;;;;;;43.87;15.60;;;1.30;99.90;;;;;;4944585;28;20226;-64
2023/12/06 07:00:16;;;;;;;44.73;17.30;;;1.30;99.90;;;;;;4942763;29;20241;-65
2023/12/06 07:02:42;;;;;;;41.63;17.13;;;1.20;99.90;;;;;;4944297;28;20198;-64
2023/12/06 07:05:12;;;;;;;46.50;18.40;;;1.20;99.90;;;;;;4943896;29;20679;-65
2023/12/06 07:07:39;;;;;;;49.13;18.83;;;1.20;99.90;;;;;;4944762;28;20183;-65
2023/12/06 07:10:05;;;;;;;45.57;18.50;;;1.30;99.90;;;;;;4942463;29;20306;-64
2023/12/06 07:12:32;;;;;;;48.77;18.73;;;1.20;99.90;;;;;;4937569;29;20542;-64
2023/12/06 07:15:00;;;;;;;47.53;18.40;;;1.30;99.90;;;;;;4941063;29;20271;-65
2023/12/06 07:17:26;;;;;;;45.60;19.37;;;1.20;99.90;;;;;;4944519;29;20598;-63
2023/12/06 07:19:52;;;;;;;47.40;19.67;;;1.20;99.90;;;;;;4946281;28;20190;-64
2023/12/06 07:22:17;;;;;;;51.80;20.23;;;1.30;99.90;;;;;;4943915;29;20325;-63
2023/12/06 07:24:43;;;;;;;48.73;18.97;;;1.30;99.90;;;;;;4947750;29;20191;-64
2023/12/06 07:27:09;;;;;;;54.50;21.27;;;1.20;99.90;;;;;;4949249;28;20193;-64
2023/12/06 07:29:35;;;;;;;42.37;18.10;;;1.20;99.90;;;;;;4946171;28;20282;-64
2023/12/06 07:32:01;;;;;;;45.63;19.27;;;1.20;99.90;;;;;;4936043;29;20218;-64
2023/12/06 07:34:27;;;;;;;48.80;19.60;;;1.20;99.90;;;;;;4944474;29;20274;-63
2023/12/06 07:36:53;;;;;;;44.23;19.00;;;1.30;99.90;;;;;;4942059;28;20653;-63
2023/12/06 07:39:19;;;;;;;44.90;19.40;;;1.30;99.90;;;;;;4942071;29;20198;-64
2023/12/06 07:41:45;;;;;;;44.47;17.23;;;1.30;99.90;;;;;;4935786;29;20282;-64
2023/12/06 07:44:11;;;;;;;40.63;17.50;;;1.30;99.90;;;;;;4935707;29;20286;-65
2023/12/06 07:46:37;;;;;;;40.27;17.50;;;1.30;99.90;;;;;;4936106;29;20194;-64
2023/12/06 07:49:03;;;;;;;38.67;16.17;;;1.30;99.90;;;;;;4935656;29;20211;-64
2023/12/06 07:51:28;;;;;;;44.03;17.73;;;1.30;99.90;;;;;;4935302;29;20629;-64
2023/12/06 07:53:56;;;;;;;39.43;17.27;;;1.40;99.90;;;;;;4935837;29;20183;-63
2023/12/06 07:56:21;;;;;;;39.93;18.03;;;1.40;99.90;;;;;;4935790;29;20274;-63
2023/12/06 07:58:47;;;;;;;39.10;16.83;;;1.40;99.90;;;;;;4935748;29;20270;-64
2023/12/06 08:01:12;;;;;;;42.23;18.90;;;1.40;99.90;;;;;;4934950;29;20258;-64
2023/12/06 08:03:39;;;;;;;40.10;16.90;;;1.40;99.90;;;;;;4935733;29;20191;-63
2023/12/06 08:06:06;;;;;;;41.70;17.40;;;1.40;99.90;;;;;;4935595;29;20235;-63
2023/12/06 08:08:33;;;;;;;39.80;17.93;;;1.40;99.90;;;;;;4935304;29;20206;-63
2023/12/06 08:10:59;;;;;;;45.87;18.30;;;1.40;99.90;;;;;;4934764;29;20190;-63
2023/12/06 08:13:26;;;;;;;43.10;18.27;;;1.40;99.90;;;;;;4935406;29;20183;-66
2023/12/06 08:15:52;;;;;;;43.57;18.23;;;1.40;99.90;;;;;;4935415;29;20664;-64
2023/12/06 08:18:17;;;;;;;41.80;17.67;;;1.40;99.90;;;;;;4935538;29;20211;-64
2023/12/06 08:20:43;;;;;;;39.80;16.83;;;1.40;99.90;;;;;;4933648;29;20179;-64
2023/12/06 08:23:08;;;;;;;38.97;17.00;;;1.40;99.90;;;;;;4935123;29;20688;-63
2023/12/06 08:25:34;;;;;;;34.07;15.10;;;1.50;99.90;;;;;;4934052;29;20604;-64
2023/12/06 08:27:59;;;;;;;34.10;14.90;;;1.50;99.90;;;;;;4934938;29;20187;-65
2023/12/06 08:30:25;;;;;;;35.53;15.87;;;1.50;99.90;;;;;;4934415;29;20222;-64
2023/12/06 08:32:51;;;;;;;36.53;15.90;;;1.50;99.90;;;;;;4934909;29;20297;-64
2023/12/06 08:35:16;;;;;;;38.67;15.33;;;1.50;99.90;;;;;;4927425;29;20187;-64
2023/12/06 08:37:42;;;;;;;40.87;15.87;;;1.50;99.90;;;;;;4935205;29;20191;-64
2023/12/06 08:40:10;;;;;;;39.23;16.77;;;1.50;99.90;;;;;;4934259;29;20234;-63
2023/12/06 08:42:35;;;;;;;47.40;18.80;;;1.50;99.90;;;;;;4934941;29;20203;-64
2023/12/06 08:45:01;;;;;;;44.80;16.93;;;1.50;99.90;;;;;;4949421;29;20205;-63
2023/12/06 08:47:26;;;;;;;40.43;15.60;;;1.50;99.90;;;;;;4934913;29;20205;-64
2023/12/06 08:49:52;;;;;;;49.87;18.17;;;1.60;99.90;;;;;;4934153;29;20696;-64
2023/12/06 08:52:18;;;;;;;41.20;16.37;;;1.60;99.90;;;;;;4934837;29;20214;-64
2023/12/06 08:54:43;;;;;;;48.97;17.83;;;1.60;99.90;;;;;;4934825;29;20262;-64
2023/12/06 08:57:09;;;;;;;50.13;18.13;;;1.60;99.90;;;;;;4934562;29;20187;-64
2023/12/06 08:59:35;;;;;;;44.20;17.10;;;1.60;99.90;;;;;;4934389;29;20198;-65
2023/12/06 09:02:00;;;;;;;44.60;16.90;;;1.60;99.90;;;;;;4934479;29;20250;-64
2023/12/06 09:04:26;;;;;;;53.10;17.50;;;1.60;99.90;;;;;;4935377;29;20195;-65
2023/12/06 09:06:52;;;;;;;51.93;18.03;;;1.60;99.90;;;;;;4934645;29;20274;-64
2023/12/06 09:09:17;;;;;;;54.03;17.00;;;1.70;99.90;;;;;;4934575;29;20215;-64
2023/12/06 09:11:44;;;;;;;47.47;18.10;;;1.60;99.90;;;;;;4933866;29;20215;-65
2023/12/06 09:14:10;;;;;;;55.83;18.37;;;1.60;99.90;;;;;;4934421;29;20194;-64
2023/12/06 09:16:36;;;;;;;51.73;19.13;;;1.60;99.90;;;;;;4934417;29;20179;-65
2023/12/06 09:19:03;;;;;;;51.37;17.83;;;1.60;99.90;;;;;;4933626;29;20184;-65
2023/12/06 09:21:43;;;;;;;50.00;18.23;;;1.60;99.90;;;;;;4933032;29;20199;-65
2023/12/06 09:24:13;;;;;;;52.37;17.57;;;1.60;99.90;;;;;;4942706;29;20190;-64
2023/12/06 09:26:39;;;;;;;52.87;19.17;;;1.60;99.90;;;;;;4941754;29;20190;-64
2023/12/06 09:29:05;;;;;;;50.93;18.53;;;1.60;99.90;;;;;;4939350;29;20262;-64
2023/12/06 09:31:32;;;;;;;46.70;19.17;;;1.70;99.90;;;;;;4941933;29;20226;-64
2023/12/06 09:33:58;;;;;;;51.03;18.53;;;1.70;99.90;;;;;;4936856;29;20199;-65
2023/12/06 09:36:24;;;;;;;48.10;17.63;;;1.70;99.90;;;;;;4942688;29;20222;-64
2023/12/06 09:38:51;;;;;;;43.63;17.53;;;1.80;99.90;;;;;;4937621;28;20190;-65
2023/12/06 09:41:20;;;;;;;46.57;16.77;;;1.70;99.90;;;;;;4933155;29;20743;-64
2023/12/06 09:43:45;;;;;;;41.70;15.80;;;1.70;99.90;;;;;;4933711;29;20199;-65
2023/12/06 09:46:14;;;;;;;44.03;16.47;;;1.70;99.90;;;;;;4933761;29;20187;-64
2023/12/06 09:48:40;;;;;;;44.47;17.67;;;1.80;99.90;;;;;;4948481;29;20301;-65
2023/12/06 09:51:06;;;;;;;48.20;17.97;;;1.80;99.90;;;;;;4933043;29;20323;-65
2023/12/06 09:53:31;;;;;;;44.07;16.60;;;1.80;99.90;;;;;;4933683;29;20572;-63
2023/12/06 09:56:01;;;;;;;42.57;16.47;;;1.80;99.90;;;;;;4935302;29;20265;-64
2023/12/06 09:58:26;;;;;;;60.63;22.13;;;1.70;99.90;;;;;;4932414;29;20676;-64
2023/12/06 10:00:52;;;;;;;49.47;18.23;;;1.80;99.90;;;;;;4933064;29;20195;-64
2023/12/06 10:03:21;;;;;;;49.67;20.27;;;1.80;99.90;;;;;;4933484;29;20217;-64
2023/12/06 10:06:03;;;;;;;49.10;19.00;;;1.80;99.90;;;;;;4933565;29;20392;-65
2023/12/06 10:08:32;;;;;;;41.43;16.17;;;1.80;99.90;;;;;;4933569;29;20178;-64
2023/12/06 10:11:05;;;;;;;43.80;17.57;;;1.90;99.90;;;;;;4932667;29;20210;-63
2023/12/06 10:13:40;;;;;;;43.47;17.73;;;1.90;99.90;;;;;;4933440;29;20194;-63
2023/12/06 10:16:21;;;;;;;46.67;17.10;;;1.80;99.90;;;;;;4933182;29;20239;-64
2023/12/06 10:18:49;;;;;;;48.67;19.50;;;1.90;99.90;;;;;;4933479;29;20193;-65
2023/12/06 10:21:19;;;;;;;47.07;20.13;;;1.90;99.90;;;;;;4932577;29;20674;-65
2023/12/06 10:23:59;;;;;;;46.27;19.27;;;2.00;99.90;;;;;;4933482;29;20286;-65
2023/12/06 10:26:31;;;;;;;43.87;19.63;;;2.00;99.90;;;;;;4926426;29;20178;-65
2023/12/06 10:28:57;;;;;;;52.87;18.37;;;1.90;99.90;;;;;;4932821;29;20210;-65
2023/12/06 10:31:22;;;;;;;49.43;19.53;;;1.90;99.90;;;;;;4932139;29;20810;-65
2023/12/06 10:33:56;;;;;;;54.90;20.17;;;2.00;99.90;;;;;;4933207;29;20604;-65
2023/12/06 10:36:25;;;;;;;61.83;19.77;;;2.00;99.90;;;;;;4925910;29;20280;-64
2023/12/06 10:38:52;;;;;;;53.83;19.87;;;2.00;99.90;;;;;;4933161;29;20191;-65
2023/12/06 10:41:20;;;;;;;59.37;22.10;;;2.00;99.90;;;;;;4932225;29;20211;-65
2023/12/06 10:43:47;;;;;;;58.70;20.83;;;2.00;99.90;;;;;;4933163;29;20561;-65
2023/12/06 10:46:14;;;;;;;60.77;22.50;;;2.00;99.90;;;;;;4932865;29;20609;-65
2023/12/06 10:48:40;;;;;;;59.63;23.00;;;2.00;99.90;;;;;;4933143;29;20270;-65
2023/12/06 10:51:07;;;;;;;59.87;20.93;;;2.00;99.90;;;;;;4932258;29;20876;-65
2023/12/06 10:53:33;;;;;;;55.97;20.53;;;2.00;99.90;;;;;;4933038;29;20262;-65
2023/12/06 10:56:01;;;;;;;56.90;20.27;;;2.10;99.90;;;;;;4933356;29;20274;-64
2023/12/06 10:58:26;;;;;;;57.77;21.80;;;2.10;99.90;;;;;;4932961;29;20555;-64
2023/12/06 11:00:53;;;;;;;53.20;20.73;;;2.10;99.90;;;;;;4931960;29;20183;-65
2023/12/06 11:03:19;;;;;;;52.83;20.47;;;2.20;99.90;;;;;;4932996;29;20175;-65
2023/12/06 11:05:48;;;;;;;53.77;20.57;;;2.10;99.90;;;;;;4933025;29;20223;-64
2023/12/06 11:08:26;;;;;;;54.40;21.13;;;2.10;99.90;;;;;;4932824;29;20190;-65
2023/12/06 11:11:05;;;;;;;53.20;21.50;;;2.20;99.90;;;;;;4946923;29;20273;-64
2023/12/06 11:13:43;;;;;;;50.13;19.53;;;2.20;99.90;;;;;;4926583;29;20183;-64
2023/12/06 11:16:20;;;;;;;48.37;18.63;;;2.20;99.90;;;;;;4932979;29;20233;-64
2023/12/06 11:18:50;;;;;;;45.87;17.83;;;2.20;99.90;;;;;;4933221;29;20183;-65
2023/12/06 11:21:19;;;;;;;45.07;17.53;;;2.20;99.90;;;;;;4931935;29;20203;-65
2023/12/06 11:23:46;;;;;;;40.10;17.17;;;2.20;99.90;;;;;;4932799;29;20604;-65
2023/12/06 11:26:12;;;;;;;44.17;17.70;;;2.20;99.90;;;;;;4932754;29;20191;-64
2023/12/06 11:28:42;;;;;;;41.43;17.13;;;2.30;99.90;;;;;;4932559;29;20246;-65
2023/12/06 11:31:11;;;;;;;43.27;16.93;;;2.30;99.90;;;;;;4931691;29;20211;-65
2023/12/06 11:33:37;;;;;;;43.60;17.73;;;2.30;99.90;;;;;;4932807;29;20230;-65
2023/12/06 11:36:03;;;;;;;44.03;18.70;;;2.30;99.90;;;;;;4932732;29;20187;-65
2023/12/06 11:38:34;;;;;;;46.83;18.50;;;2.30;99.90;;;;;;4932570;29;20776;-65
2023/12/06 11:41:00;;;;;;;42.63;17.40;;;2.30;99.90;;;;;;4930666;29;20184;-65
2023/12/06 11:43:33;;;;;;;40.57;17.37;;;2.40;99.90;;;;;;4936375;29;20191;-65
2023/12/06 11:46:04;;;;;;;37.87;16.07;;;2.40;99.90;;;;;;4937890;28;20187;-65
2023/12/06 11:48:32;;;;;;;35.93;15.77;;;2.40;99.90;;;;;;4938528;29;20664;-65
2023/12/06 11:51:00;;;;;;;39.17;16.87;;;2.40;99.90;;;;;;4936967;29;20187;-65
2023/12/06 11:53:30;;;;;;;33.53;15.50;;;2.40;99.90;;;;;;4943437;29;20194;-65
2023/12/06 11:55:56;;;;;;;36.40;15.77;;;2.50;99.90;;;;;;4941144;29;20194;-65
2023/12/06 11:58:22;;;;;;;36.93;16.20;;;2.50;99.90;;;;;;4935700;29;20187;-65
2023/12/06 12:00:51;;;;;;;35.80;15.57;;;2.50;99.90;;;;;;4935326;29;20175;-65
2023/12/06 12:03:17;;;;;;;32.20;14.67;;;2.50;99.90;;;;;;4935587;29;20216;-65
2023/12/06 12:05:48;;;;;;;36.73;16.03;;;2.50;99.90;;;;;;4941104;29;20182;-65
2023/12/06 12:08:14;;;;;;;37.87;16.10;;;2.50;99.90;;;;;;4936327;28;20187;-65
2023/12/06 12:10:41;;;;;;;36.57;16.17;;;2.50;99.90;;;;;;4933909;29;20219;-65
2023/12/06 12:13:18;;;;;;;37.80;17.30;;;2.50;99.90;;;;;;4934485;29;20622;-65
2023/12/06 12:15:56;;;;;;;33.20;15.27;;;2.50;99.90;;;;;;4933648;29;20605;-65
2023/12/06 12:18:25;;;;;;;33.97;15.67;;;2.60;99.90;;;;;;4933499;29;20197;-65
2023/12/06 12:20:50;;;;;;;31.83;14.97;;;2.60;99.90;;;;;;4935266;29;20625;-65
2023/12/06 12:23:16;;;;;;;36.47;15.40;;;2.60;99.90;;;;;;4935137;29;20227;-65
2023/12/06 12:25:47;;;;;;;31.97;15.20;;;2.60;99.90;;;;;;4934917;29;20270;-64
2023/12/06 12:28:16;;;;;;;36.07;15.03;;;2.60;99.90;;;;;;4934491;29;20180;-64
2023/12/06 12:30:42;;;;;;;31.97;14.90;;;2.60;99.90;;;;;;4934555;29;20586;-65
2023/12/06 12:33:08;;;;;;;30.53;14.20;;;2.70;99.90;;;;;;4935115;29;20211;-65
2023/12/06 12:35:34;;;;;;;35.80;15.87;;;2.70;99.90;;;;;;4934029;29;20199;-64
2023/12/06 12:37:59;;;;;;;34.13;15.87;;;2.60;99.90;;;;;;4933932;29;20257;-65
2023/12/06 12:40:25;;;;;;;33.20;15.77;;;2.70;99.90;;;;;;4935040;29;20241;-65
2023/12/06 12:42:51;;;;;;;34.57;15.30;;;2.70;99.90;;;;;;4935457;29;20593;-65